Flight Track Log - Related Links

Times and Time Zones

All times are in EDT time to prevent confusion due to time zone crossing. See the UAL656 flight status page for this flight to view local times or setup timezone preferences in your user account.

Time Position Orientation Groundspeed Altitude Reporting Facility
EDT Latitude Longitude Course Direction KTS MPH feet Rate Location/Type
Tue 03:38:27 PM 42.0000 -87.9500 71° East 162 186 1,900  Level Chicago TRACON
Tue 03:39:22 PM 42.0500 -87.9667 346° North 237 273 3,200 1,983 Climbing Chicago TRACON
Tue 03:40:00 PM 42.1119 -87.5120 62° Northeast  Level FlightAware Approximate
Tue 03:40:22 PM 42.1000 -87.8667 56° Northeast 295 339 5,700  Level Chicago TRACON
Tue 03:41:00 PM 42.1635 -87.3762 66° East  Level FlightAware Approximate
Tue 03:42:00 PM 42.2099 -87.2369 66° East  Level FlightAware Approximate
Tue 03:42:12 PM 42.1347 -87.6875 75° East 305 351 11,400  Level Chicago Center
Tue 03:43:00 PM 42.2550 -87.0968 71° East  Level FlightAware Approximate
Tue 03:43:14 PM 42.1578 -87.5764 74° East 309 356 14,300  Level Chicago Center
Tue 03:44:16 PM 42.1644 -87.4508 86° East 330 380 16,800 2,516 Climbing Chicago Center
Tue 03:45:18 PM 42.1756 -87.2925 85° East 352 405 19,500 2,323 Climbing Chicago Center
Tue 03:46:20 PM 42.1842 -87.1561 85° East 366 421 21,600 1,548 Climbing Chicago Center
Tue 03:47:22 PM 42.1925 -87.0156 85° East 376 433 22,700 919 Climbing Chicago Center
Tue 03:48:24 PM 42.2031 -86.8583 85° East 415 478 23,500 871 Climbing Chicago Center
Tue 03:49:26 PM 42.2136 -86.6722 86° East 452 520 24,500 1,113 Climbing Chicago Center
Tue 03:50:28 PM 42.2242 -86.4967 85° East 467 537 25,800 1,161 Climbing Chicago Center
Tue 03:51:30 PM 42.2344 -86.3194 85° East 473 544 26,900 1,104 Climbing Chicago Center
Tue 03:52:33 PM 42.2444 -86.1381 86° East 483 556 28,100 1,248 Climbing Chicago Center
Tue 03:53:35 PM 42.2561 -85.9325 86° East 490 564 29,500 1,355 Climbing Chicago Center
Tue 03:54:37 PM 42.2644 -85.7539 86° East 484 557 30,900 1,306 Climbing Chicago Center
Tue 03:55:39 PM 42.2736 -85.5731 86° East 486 559 32,200 1,306 Climbing Chicago Center
Tue 03:56:41 PM 42.2836 -85.3911 86° East 490 564 33,600 1,355 Climbing Chicago Center
Tue 03:57:43 PM 42.2939 -85.1789 86° East 476 548 35,000 672 Climbing Chicago Center
Tue 03:58:46 PM 42.3011 -85.0031 87° East 471 542 35,000  Level Chicago Center
Tue 03:59:48 PM 42.2958 -84.8272 92° East 472 543 35,000  Level Chicago Center
Tue 04:00:50 PM 42.2925 -84.6500 91° East 474 545 35,000  Level Chicago Center
Tue 04:01:52 PM 42.2903 -84.4744 91° East 471 542 35,000  Level Chicago Center
Tue 04:02:54 PM 42.3153 -84.2742 80° East 447 514 35,000  Level Chicago Center
Tue 04:03:57 PM 42.3383 -84.1083 79° East 449 517 35,000  Level Chicago Center
Tue 04:04:54 PM 42.3583 -83.9636 79° East 448 516 35,000  Level Cleveland Center
Tue 04:05:54 PM 42.3819 -83.7964 79° East 448 516 35,000  Level Cleveland Center
Tue 04:06:54 PM 42.4072 -83.6289 78° East 448 516 35,000  Level Cleveland Center
Tue 04:07:54 PM 42.4122 -83.4378 88° East 453 521 35,000  Level Cleveland Center
Tue 04:08:54 PM 42.4181 -83.2833 87° East 453 521 35,000  Level Cleveland Center
Tue 04:09:54 PM 42.4267 -83.0867 87° East 460 529 35,000  Level Cleveland Center
Tue 04:10:54 PM 42.4303 -82.9097 88° East 460 529 35,000  Level Cleveland Center
Tue 04:11:54 PM 42.4358 -82.7325 88° East 465 535 35,000  Level Cleveland Center
Tue 04:12:54 PM 42.4411 -82.5611 88° East 465 535 35,000  Level Cleveland Center
Tue 04:13:54 PM 42.4461 -82.3839 88° East 465 535 35,000  Level Cleveland Center
Tue 04:14:54 PM 42.4508 -82.2097 88° East 459 528 35,000 50 Level Cleveland Center
Tue 04:15:54 PM 42.4553 -82.0325 88° East 459 528 35,100  Climbing Cleveland Center
Tue 04:16:54 PM 42.4594 -81.8525 88° East 464 534 35,000 -50 Descending Cleveland Center
Tue 04:17:54 PM 42.4656 -81.6725 87° East 474 545 35,000 50 Level Cleveland Center
Tue 04:18:54 PM 42.4692 -81.4894 88° East 479 551 35,100  Climbing Cleveland Center
Tue 04:19:54 PM 42.4744 -81.3094 88° East 479 551 35,000 -50 Descending Cleveland Center
Tue 04:20:54 PM 42.4756 -81.1264 89° East 479 551 35,000  Level Cleveland Center
Tue 04:21:54 PM 42.4783 -80.9464 89° East 471 542 35,000  Level Cleveland Center
Tue 04:22:54 PM 42.4831 -80.7858 88° East 471 542 35,000  Level Cleveland Center
Tue 04:23:54 PM 42.4831 -80.6086 90° East 472 543 35,000  Level Cleveland Center
Tue 04:24:54 PM 42.4872 -80.4339 88° East 472 543 35,000  Level Cleveland Center
Tue 04:25:54 PM 42.4994 -80.2536 85° East 472 543 35,000  Level Cleveland Center
Tue 04:26:54 PM 42.5092 -80.0761 86° East 472 543 35,000  Level Cleveland Center
Tue 04:27:54 PM 42.5269 -79.9014 82° East 477 549 35,000  Level Cleveland Center
Tue 04:28:54 PM 42.5361 -79.7239 86° East 472 543 35,000  Level Cleveland Center
Tue 04:29:54 PM 42.5472 -79.5461 85° East 472 543 35,000  Level Cleveland Center
Tue 04:30:54 PM 42.5539 -79.3711 87° East 472 543 35,000  Level Cleveland Center
Tue 04:31:54 PM 42.5664 -79.1906 85° East 481 554 35,000  Level Cleveland Center
Tue 04:32:54 PM 42.5767 -79.0100 86° East 481 554 35,000  Level Cleveland Center
Tue 04:33:54 PM 42.5867 -78.8319 86° East 481 554 35,000 -150 Level Cleveland Center
Tue 04:34:54 PM 42.5964 -78.6539 86° East 481 554 34,700 -1,150 Descending Cleveland Center
Tue 04:35:54 PM 42.6056 -78.4761 86° East 476 548 32,700 -1,350 Descending Cleveland Center
Tue 04:36:54 PM 42.6128 -78.2953 87° East 476 548 32,000 -350 Descending Cleveland Center
Tue 04:37:54 PM 42.6236 -78.1197 85° East 476 548 32,000 -100 Level Cleveland Center
Tue 04:38:54 PM 42.6322 -77.9444 86° East 476 548 31,800 -1,250 Descending Cleveland Center
Tue 04:39:54 PM 42.6406 -77.7661 86° East 476 548 29,500 -1,500 Descending Cleveland Center
Tue 04:40:54 PM 42.6422 -77.5883 89° East 471 542 28,800 -794 Descending Cleveland Center
Tue 04:43:03 PM 42.6628 -77.2156 86° East 476 548 27,000 -926 Descending Boston Center
Tue 04:44:02 PM 42.6697 -77.0464 87° East 464 534 25,900 -1,008 Descending Boston Center
Tue 04:45:02 PM 42.6783 -76.8833 86° East 445 512 25,000 -446 Descending Boston Center
Tue 04:46:03 PM 42.6825 -76.7169 88° East 439 505 25,000  Level Boston Center
Tue 04:47:03 PM 42.6886 -76.5506 87° East 439 505 25,000 -347 Level Boston Center
Tue 04:48:04 PM 42.6944 -76.3869 87° East 439 505 24,300 -1,300 Descending Boston Center
Tue 04:49:03 PM 42.6997 -76.2319 87° East 431 496 22,400 -2,118 Descending Boston Center
Tue 04:50:03 PM 42.7028 -76.0767 88° East 418 481 20,100 -1,750 Descending Boston Center
Tue 04:51:03 PM 42.7075 -75.9269 87° East 405 466 18,900 -1,438 Descending Boston Center
Tue 04:52:04 PM 42.7097 -75.7803 89° East 394 453 17,200 -1,587 Descending Boston Center
Tue 04:53:04 PM 42.7075 -75.6389 91° East 388 447 15,700 -1,729 Descending Boston Center
Tue 04:54:02 PM 42.6906 -75.5050 100° East 373 429 13,800 -1,881 Descending Boston Center
Tue 04:55:02 PM 42.6753 -75.3744 99° East 361 415 12,000 -1,736 Descending Boston Center
Tue 04:56:03 PM 42.6597 -75.2467 99° East 348 400 10,300 -992 Descending Boston Center
Tue 04:57:03 PM 42.6439 -75.1217 100° East 341 392 10,000 -149 Descending Boston Center
Tue 04:58:04 PM 42.6281 -74.9967 100° East 335 386 10,000  Level Boston Center
Tue 04:59:02 PM 42.6119 -74.8747 100° East 335 386 10,000  Level Boston Center
Tue 05:00:02 PM 42.5958 -74.7417 99° East 335 386 10,000  Level Boston Center
Tue 05:01:03 PM 42.5833 -74.6425 100° East 313 360 10,000  Level Boston Center
Tue 05:02:03 PM 42.5689 -74.5178 99° East 308 354 10,000 -645 Level Boston Center
Tue 05:03:04 PM 42.5564 -74.4047 98° East 308 354 8,700 -1,240 Descending Boston Center
Tue 05:04:04 PM 42.5458 -74.2972 98° East 295 339 7,500 -1,388 Descending Boston Center
Tue 05:05:05 PM 42.5350 -74.1897 98° East 285 328 5,900 -1,311 Descending Boston Center
Tue 05:06:03 PM 42.5550 -74.0917 74° East 269 310 4,900 -1,210 Descending Boston Center
Tue 05:07:04 PM 42.5856 -73.9994 66° East 264 304 3,500 -877 Descending Boston Center
Tue 05:08:13 PM 42.6222 -73.9100 61° Northeast 231 266 3,000 -661 Descending Boston Center
Tue 05:09:02 PM 42.6481 -73.8458 61° Northeast 234 269 2,200 -436 Descending Boston Center
Tue 05:10:03 PM 42.6761 -73.7758 61° Northeast 234 269 2,200 -716 Level Boston Center
Tue 05:11:16 PM 42.7278 -73.8081 335° Northwest 127 146 600 -1,315 Descending Boston Center

Login

Don't have an account? Register now (free) for customized features, flight alerts, and more!